PAKT/KTN METAR and TAF weather

Enter ICAO airport designator
Station Type Date Time Source
PAKT METAR 2022/01/18 07:53 UTC NOAA

PAKT 180753Z AUTO 35010KT 10SM CLR 00/M01 A3005 RMK AO2 SLP177 T00001011 TSNO


Station Type Date Time Source
PAKT Decoded METAR 2022/01/18 07:53 UTC NOAA

KETCHIKAN INTERNATIONAL AIRPORT , AK, United States (PAKT) 55-21N 131-43W 25M
Jan 18, 2022 - 02:53 AM EST / 2022.01.18 0753 UTC
Wind: from the N (350 degrees) at 12 MPH (10 KT):0
Visibility: 10 mile(s):0
Sky conditions: clear
Temperature: 32.0 F (0.0 C)
Windchill: 23 F (-5 C):1
Dew Point: 30.0 F (-1.1 C)
Relative Humidity: 92%
Pressure (altimeter): 30.05 in. Hg (1017 hPa)
ob: PAKT 180753Z AUTO 35010KT 10SM CLR 00/M01 A3005 RMK AO2 SLP177 T00001011 TSNO
cycle: 8

Station Type Date Time Source
PAKT TAF 2022/01/18 06:33 UTC NOAA

TAF PAKT 180531Z 1806/1906 31005KT P6SM FEW200
AMD LTD TO CLD VIS AND WIND 1806/1815

Example: see airport list